Time;durP1;ratioP1;P1;durP2;ratioP2;P2;SDS_P1;SDS_P2;PMS_P1;PMS_P2;Temp;Humidity;BMP_temperature;BMP_pressure;BME280_temperature;BME280_humidity;BME280_pressure;Samples;Min_cycle;Max_cycle;Signal;HPM_P1;HPM_P2
2021/07/08 00:01:06;;;;;;;6.73;4.90;;;20.10;99.90;;;;;;6187303;23;20720;-41
2021/07/08 00:03:33;;;;;;;5.37;4.80;;;20.10;99.90;;;;;;6194769;23;20388;-42
2021/07/08 00:06:18;;;;;;;5.97;5.37;;;20.10;99.90;;;;;;6213640;23;20451;-43
2021/07/08 00:08:44;;;;;;;5.60;5.10;;;20.00;99.90;;;;;;6208821;23;20369;-45
2021/07/08 00:11:11;;;;;;;6.40;5.80;;;20.00;99.90;;;;;;6214410;23;20393;-42
2021/07/08 01:36:23;;;;;;;6.50;5.70;;;19.30;99.90;;;;;;6130764;23;20455;-43
2021/07/08 01:38:50;;;;;;;6.97;6.27;;;19.40;99.90;;;;;;6189693;23;20395;-45
2021/07/08 01:41:17;;;;;;;6.57;6.00;;;19.30;99.90;;;;;;6187102;23;20467;-46
2021/07/08 01:43:45;;;;;;;6.53;5.93;;;19.40;99.90;;;;;;6186560;23;20400;-45
2021/07/08 01:46:13;;;;;;;6.50;5.93;;;19.30;99.90;;;;;;6187671;23;20512;-43
2021/07/08 01:48:44;;;;;;;6.10;5.50;;;19.30;99.90;;;;;;6189118;23;20400;-44
2021/07/08 01:51:25;;;;;;;6.40;5.80;;;19.30;99.90;;;;;;6186522;23;20817;-45
2021/07/08 01:53:53;;;;;;;6.90;6.17;;;19.30;99.90;;;;;;6187164;23;20859;-44
2021/07/08 01:56:21;;;;;;;6.70;6.10;;;19.30;99.90;;;;;;6188054;23;20975;-42
2021/07/08 01:58:48;;;;;;;7.70;7.00;;;19.30;99.90;;;;;;6188020;23;20907;-43
2021/07/08 02:01:15;;;;;;;5.87;5.37;;;19.30;99.90;;;;;;6188358;23;20425;-46
2021/07/08 02:03:42;;;;;;;7.23;6.53;;;19.30;99.90;;;;;;6188381;23;20408;-47
2021/07/08 02:06:09;;;;;;;6.30;5.40;;;19.20;99.90;;;;;;6193636;23;20481;-45
2021/07/08 02:08:36;;;;;;;7.00;6.30;;;19.20;99.90;;;;;;6188378;23;20404;-47
2021/07/08 02:11:05;;;;;;;7.20;6.20;;;19.10;99.90;;;;;;6188954;23;20753;-44
2021/07/08 02:13:32;;;;;;;5.80;5.20;;;19.00;99.90;;;;;;6188047;23;20424;-43
2021/07/08 02:15:59;;;;;;;7.90;6.60;;;19.00;99.90;;;;;;6188200;23;20436;-42
2021/07/08 02:18:25;;;;;;;7.27;6.57;;;19.00;99.90;;;;;;6188311;23;20416;-42
2021/07/08 02:20:52;;;;;;;7.47;6.87;;;19.00;99.90;;;;;;6190242;23;20417;-43
2021/07/08 02:23:19;;;;;;;6.67;6.07;;;18.90;99.90;;;;;;6188371;23;20467;-46
2021/07/08 02:28:23;;;;;;;6.70;6.13;;;18.90;99.90;;;;;;6084538;23;20466;-43
2021/07/08 02:33:27;;;;;;;6.80;6.10;;;18.90;99.90;;;;;;6173236;23;20452;-42
2021/07/08 02:35:54;;;;;;;6.67;6.17;;;18.80;99.90;;;;;;6188549;23;20444;-42
2021/07/08 02:43:33;;;;;;;7.83;7.23;;;18.70;99.90;;;;;;6122382;23;20460;-45
2021/07/08 02:46:00;;;;;;;8.57;7.03;;;18.70;99.90;;;;;;6189087;23;20401;-44
2021/07/08 02:48:27;;;;;;;6.70;6.10;;;18.70;99.90;;;;;;6188191;23;20404;-41
2021/07/08 02:50:56;;;;;;;7.47;6.53;;;18.70;99.90;;;;;;6188149;23;20714;-45
2021/07/08 02:53:23;;;;;;;6.83;6.10;;;18.70;99.90;;;;;;6193678;23;20409;-48
2021/07/08 02:55:50;;;;;;;8.43;7.33;;;18.80;99.90;;;;;;6188660;23;20700;-41
2021/07/08 02:58:18;;;;;;;8.60;7.00;;;18.80;99.90;;;;;;6188060;23;20467;-45
2021/07/08 03:00:48;;;;;;;8.37;7.30;;;18.80;99.90;;;;;;6188063;23;20416;-40
2021/07/08 03:03:15;;;;;;;6.60;6.00;;;18.90;99.90;;;;;;6188060;23;20394;-42
2021/07/08 03:05:42;;;;;;;7.07;6.37;;;18.90;99.90;;;;;;6187559;23;20409;-42
2021/07/08 03:08:10;;;;;;;6.80;6.20;;;18.90;99.90;;;;;;6187919;23;20416;-42
2021/07/08 03:55:57;;;;;;;7.20;6.50;;;19.00;99.90;;;;;;6202996;23;20929;-50
2021/07/08 03:58:24;;;;;;;7.63;6.93;;;19.10;99.90;;;;;;6206071;23;20461;-44
2021/07/08 04:00:51;;;;;;;11.70;7.80;;;19.10;99.90;;;;;;6203658;23;20404;-43
2021/07/08 04:03:19;;;;;;;6.83;6.23;;;19.00;99.90;;;;;;6203271;23;20438;-49
2021/07/08 04:05:47;;;;;;;7.67;6.20;;;19.00;99.90;;;;;;6187356;23;20416;-42
2021/07/08 04:08:14;;;;;;;7.27;6.67;;;19.10;99.90;;;;;;6187418;23;20439;-43
2021/07/08 04:10:43;;;;;;;6.90;6.30;;;19.10;99.90;;;;;;6187472;23;20408;-42
2021/07/08 04:13:15;;;;;;;7.90;7.30;;;19.10;99.90;;;;;;6187400;23;20416;-42
2021/07/08 04:15:44;;;;;;;6.83;6.23;;;19.20;99.90;;;;;;6187268;23;20389;-41
2021/07/08 04:18:12;;;;;;;8.03;7.23;;;19.10;99.90;;;;;;6186871;23;20478;-42
2021/07/08 04:20:40;;;;;;;8.53;7.53;;;19.20;99.90;;;;;;6187051;23;20393;-45
2021/07/08 04:23:08;;;;;;;6.40;5.70;;;19.20;99.90;;;;;;6187335;23;20437;-49
2021/07/08 05:49:44;;;;;;;;;;;;;;;;;;;;;
2021/07/08 05:52:11;;;;;;;8.80;7.90;;;20.50;99.90;;;;;;6169553;23;20405;-43
2021/07/08 05:54:38;;;;;;;7.77;7.10;;;20.60;99.90;;;;;;6156896;23;20406;-44
2021/07/08 05:57:05;;;;;;;7.57;6.87;;;20.70;99.90;;;;;;6156778;23;20452;-42
2021/07/08 06:25:30;;;;;;;8.17;6.87;;;20.60;99.90;;;;;;6127167;23;20474;-41
2021/07/08 06:27:56;;;;;;;8.07;6.63;;;20.60;99.90;;;;;;6212353;23;20393;-50
2021/07/08 06:30:23;;;;;;;8.23;7.40;;;20.60;99.90;;;;;;6211886;23;20393;-49
2021/07/08 06:32:50;;;;;;;9.63;6.83;;;20.60;99.90;;;;;;6188994;23;20405;-42
2021/07/08 06:35:18;;;;;;;7.23;6.33;;;20.60;99.90;;;;;;6186475;23;20456;-42
2021/07/08 06:37:45;;;;;;;6.60;6.00;;;20.60;99.90;;;;;;6186331;23;20436;-41
2021/07/08 06:40:16;;;;;;;9.43;6.27;;;20.60;99.90;;;;;;6187088;23;20404;-45
2021/07/08 06:42:45;;;;;;;9.30;7.17;;;20.60;99.90;;;;;;6188251;23;20417;-48
2021/07/08 06:45:14;;;;;;;8.63;6.83;;;20.60;99.90;;;;;;6187838;23;20440;-50
2021/07/08 06:47:43;;;;;;;10.47;6.60;;;20.60;99.90;;;;;;6188151;23;20428;-44
2021/07/08 07:32:19;;;;;;;8.37;7.50;;;20.50;99.90;;;;;;6141903;23;20437;-45
2021/07/08 07:34:46;;;;;;;8.70;6.20;;;20.60;99.90;;;;;;6187732;23;20405;-44
2021/07/08 07:37:13;;;;;;;6.43;5.83;;;20.60;99.90;;;;;;6187616;23;20514;-41
2021/07/08 07:39:39;;;;;;;6.80;6.20;;;20.60;99.90;;;;;;6187311;23;20471;-43
2021/07/08 07:42:07;;;;;;;7.77;6.40;;;20.60;99.90;;;;;;6187731;23;20922;-42
2021/07/08 07:44:33;;;;;;;6.93;6.30;;;20.70;99.90;;;;;;6187669;23;20460;-41
2021/07/08 07:47:00;;;;;;;7.10;6.47;;;20.70;99.90;;;;;;6187321;23;20401;-43
2021/07/08 07:49:28;;;;;;;6.23;5.63;;;20.70;99.90;;;;;;6206629;23;20409;-42
2021/07/08 07:51:54;;;;;;;12.60;6.20;;;20.70;99.90;;;;;;6193427;23;20416;-42
2021/07/08 07:54:21;;;;;;;9.37;6.40;;;20.70;99.90;;;;;;6192734;23;20467;-46
2021/07/08 07:56:48;;;;;;;6.30;5.80;;;20.70;99.90;;;;;;6192519;23;20440;-48
2021/07/08 07:59:14;;;;;;;6.77;6.07;;;20.80;99.90;;;;;;6192649;23;20405;-44
2021/07/08 08:01:41;;;;;;;6.77;6.03;;;20.80;99.90;;;;;;6188930;23;20764;-45
2021/07/08 08:04:08;;;;;;;7.27;6.53;;;20.70;99.90;;;;;;6187588;23;20412;-44
2021/07/08 08:09:20;;;;;;;8.87;7.27;;;20.70;99.90;;;;;;6186427;23;20428;-41
2021/07/08 08:11:46;;;;;;;5.83;5.30;;;20.80;99.90;;;;;;6187427;23;20424;-49
2021/07/08 08:14:13;;;;;;;6.77;6.00;;;20.80;99.90;;;;;;6187452;23;20405;-48
2021/07/08 08:16:40;;;;;;;10.10;7.30;;;20.80;99.90;;;;;;6187312;23;20444;-44
2021/07/08 08:19:06;;;;;;;6.33;5.77;;;20.90;99.90;;;;;;6187267;23;20417;-48
2021/07/08 08:21:33;;;;;;;5.70;5.20;;;20.90;99.90;;;;;;6187031;23;20859;-45
2021/07/08 08:24:01;;;;;;;5.47;5.07;;;20.90;99.90;;;;;;6186962;23;21049;-45
2021/07/08 08:26:28;;;;;;;9.63;6.07;;;21.00;99.90;;;;;;6187259;23;20436;-43
2021/07/08 08:28:55;;;;;;;5.67;5.03;;;21.10;99.90;;;;;;6187220;23;20475;-42
2021/07/08 09:03:20;;;;;;;8.30;4.67;;;21.50;99.90;;;;;;6092206;23;21371;-45
2021/07/08 09:05:50;;;;;;;5.60;5.10;;;21.70;99.90;;;;;;6162058;23;20445;-43
2021/07/08 09:08:20;;;;;;;6.07;4.53;;;21.70;99.90;;;;;;6162740;23;20434;-44
2021/07/08 09:10:49;;;;;;;5.93;5.10;;;21.80;99.90;;;;;;6163089;23;20448;-47
2021/07/08 09:13:17;;;;;;;9.03;4.47;;;21.80;99.90;;;;;;6162138;23;20916;-49
2021/07/08 09:15:44;;;;;;;7.67;4.80;;;21.90;99.90;;;;;;6161320;23;20402;-46
2021/07/08 09:18:14;;;;;;;5.10;4.60;;;22.00;99.90;;;;;;6163202;23;20781;-45
2021/07/08 09:20:42;;;;;;;8.40;5.37;;;22.20;99.90;;;;;;6161787;23;20485;-46
2021/07/08 09:23:15;;;;;;;6.40;4.23;;;22.40;99.90;;;;;;6161358;23;20410;-47
2021/07/08 09:25:44;;;;;;;6.50;3.90;;;22.60;99.90;;;;;;6161072;23;20402;-44
2021/07/08 09:28:14;;;;;;;4.43;4.03;;;23.00;99.90;;;;;;6160724;23;20406;-45
2021/07/08 09:30:42;;;;;;;5.83;4.90;;;23.40;99.90;;;;;;6161346;23;20399;-47
2021/07/08 09:33:29;;;;;;;6.93;4.27;;;23.80;99.90;;;;;;6160965;23;20499;-45
2021/07/08 09:36:07;;;;;;;8.10;6.10;;;24.10;99.90;;;;;;6160844;23;20401;-48
2021/07/08 09:38:34;;;;;;;5.30;4.10;;;24.20;99.90;;;;;;6160991;23;20425;-43
2021/07/08 09:41:16;;;;;;;4.83;4.43;;;24.40;99.90;;;;;;6161166;23;20433;-43
2021/07/08 09:43:44;;;;;;;6.40;4.60;;;24.60;99.90;;;;;;6160773;23;20460;-47
2021/07/08 09:46:14;;;;;;;7.57;5.40;;;24.60;99.90;;;;;;6160807;23;20405;-46
2021/07/08 09:49:02;;;;;;;5.00;4.50;;;24.50;99.90;;;;;;6161021;23;20401;-42
2021/07/08 09:51:31;;;;;;;5.20;4.57;;;24.40;99.90;;;;;;6161040;23;20398;-47
2021/07/08 09:54:05;;;;;;;4.90;4.00;;;24.20;99.90;;;;;;6161199;23;20697;-42
2021/07/08 09:56:48;;;;;;;5.47;5.07;;;24.10;99.90;;;;;;6161052;23;20412;-45
2021/07/08 09:59:16;;;;;;;3.70;2.97;;;24.10;99.90;;;;;;6159321;23;20402;-43
2021/07/08 10:01:45;;;;;;;4.00;3.70;;;24.20;99.90;;;;;;6160608;23;20438;-48
2021/07/08 10:04:13;;;;;;;4.87;3.80;;;24.20;99.90;;;;;;6160350;23;20441;-42
2021/07/08 10:06:42;;;;;;;4.73;3.90;;;24.30;99.90;;;;;;6160486;23;20406;-47
2021/07/08 10:09:09;;;;;;;3.23;2.93;;;24.30;99.90;;;;;;6160739;23;20464;-49
2021/07/08 10:11:37;;;;;;;4.80;3.50;;;24.30;99.90;;;;;;6160614;23;20752;-45
2021/07/08 10:14:07;;;;;;;3.40;3.10;;;24.30;99.90;;;;;;6161596;23;20416;-46
2021/07/08 10:16:34;;;;;;;5.67;3.33;;;24.30;99.90;;;;;;6162601;23;20417;-44
2021/07/08 10:19:05;;;;;;;3.83;3.20;;;24.20;99.90;;;;;;6162805;23;20402;-42
2021/07/08 10:21:32;;;;;;;3.80;3.50;;;24.10;99.90;;;;;;6162821;23;20389;-46
2021/07/08 10:24:02;;;;;;;4.30;3.13;;;23.90;99.90;;;;;;6163048;23;20513;-44
2021/07/08 10:26:28;;;;;;;11.20;3.90;;;23.80;99.90;;;;;;6162516;23;20500;-47
2021/07/08 11:05:12;;;;;;;4.63;3.43;;;23.30;99.90;;;;;;6174014;22;20462;-44
2021/07/08 11:07:46;;;;;;;4.70;4.30;;;23.30;99.90;;;;;;6189471;23;20436;-48
2021/07/08 11:10:13;;;;;;;5.87;4.10;;;23.40;99.90;;;;;;6189070;23;20417;-45
2021/07/08 11:12:40;;;;;;;4.93;4.47;;;23.40;99.90;;;;;;6189496;23;20413;-43
2021/07/08 11:15:09;;;;;;;5.30;4.77;;;23.40;99.90;;;;;;6189565;23;20404;-49
2021/07/08 11:17:40;;;;;;;4.67;4.27;;;23.40;99.90;;;;;;6083201;23;20441;-48
2021/07/08 11:20:30;;;;;;;6.27;4.50;;;23.40;99.90;;;;;;6189707;23;20764;-51
2021/07/08 11:22:57;;;;;;;8.90;4.70;;;23.30;99.90;;;;;;6189494;23;20440;-47
2021/07/08 11:25:42;;;;;;;7.27;5.00;;;23.30;99.90;;;;;;6191319;23;20401;-42
2021/07/08 11:28:27;;;;;;;4.87;4.23;;;23.30;99.90;;;;;;6190490;23;20409;-46
2021/07/08 11:30:59;;;;;;;6.43;5.10;;;23.30;99.90;;;;;;6189985;23;20476;-47
2021/07/08 11:33:27;;;;;;;5.27;4.70;;;23.30;99.90;;;;;;6189387;23;20419;-44
2021/07/08 11:35:58;;;;;;;6.70;4.23;;;23.30;99.90;;;;;;6189351;23;20411;-45
2021/07/08 11:38:26;;;;;;;6.20;5.70;;;23.40;99.90;;;;;;6188753;23;20953;-43
2021/07/08 11:40:54;;;;;;;5.03;4.53;;;23.40;99.90;;;;;;6189543;23;20508;-44
2021/07/08 11:43:23;;;;;;;8.40;4.40;;;23.40;99.90;;;;;;6189531;23;20922;-41
2021/07/08 11:45:51;;;;;;;5.87;4.60;;;23.40;99.90;;;;;;6189243;23;20700;-41
2021/07/08 11:51:19;;;;;;;4.67;4.17;;;23.40;99.90;;;;;;6186573;23;20445;-48
2021/07/08 11:53:48;;;;;;;8.07;5.30;;;23.30;99.90;;;;;;6189316;23;20408;-43
2021/07/08 11:56:17;;;;;;;5.30;4.80;;;23.20;99.90;;;;;;6189361;23;20389;-44
2021/07/08 11:58:44;;;;;;;6.13;4.93;;;23.20;99.90;;;;;;6189332;23;20500;-50
2021/07/08 12:01:12;;;;;;;5.40;4.50;;;23.10;99.90;;;;;;6189256;23;20409;-43
2021/07/08 12:03:40;;;;;;;6.43;4.90;;;23.10;99.90;;;;;;6189165;23;20404;-49
2021/07/08 12:06:09;;;;;;;8.37;4.90;;;23.10;99.90;;;;;;6189277;23;20417;-45
2021/07/08 12:08:39;;;;;;;6.93;4.60;;;23.00;99.90;;;;;;6189393;23;20407;-46
2021/07/08 12:11:12;;;;;;;7.87;4.97;;;23.00;99.90;;;;;;6190134;23;20397;-49
2021/07/08 12:13:48;;;;;;;8.87;5.20;;;23.00;99.90;;;;;;6190069;23;20938;-42
2021/07/08 12:16:15;;;;;;;4.60;4.00;;;23.00;99.90;;;;;;6190051;23;20467;-43
2021/07/08 12:18:45;;;;;;;9.00;4.77;;;22.90;99.90;;;;;;6190939;23;20445;-41
2021/07/08 12:21:27;;;;;;;5.40;4.90;;;22.90;99.90;;;;;;6189879;23;20420;-42
2021/07/08 12:23:56;;;;;;;8.43;4.23;;;22.90;99.90;;;;;;6189223;23;20405;-49
2021/07/08 12:26:26;;;;;;;5.23;4.73;;;22.90;99.90;;;;;;6189174;23;20877;-44
2021/07/08 12:29:08;;;;;;;5.10;4.60;;;22.80;99.90;;;;;;6189014;23;20671;-51
2021/07/08 12:31:42;;;;;;;6.10;4.57;;;22.80;99.90;;;;;;6188672;23;20404;-48
2021/07/08 12:34:08;;;;;;;5.53;5.03;;;22.80;99.90;;;;;;6189133;23;20723;-44
2021/07/08 12:36:35;;;;;;;5.90;5.30;;;22.80;99.90;;;;;;6188430;23;20416;-46
2021/07/08 12:39:05;;;;;;;5.90;5.30;;;22.70;99.90;;;;;;6188493;23;20445;-43
2021/07/08 12:41:31;;;;;;;6.27;5.57;;;22.70;99.90;;;;;;6188822;23;20440;-42
2021/07/08 12:43:59;;;;;;;5.47;4.70;;;22.80;99.90;;;;;;6188926;23;20681;-42
2021/07/08 12:46:29;;;;;;;5.00;4.20;;;22.80;99.90;;;;;;6189132;23;20708;-43
2021/07/08 12:48:56;;;;;;;5.60;4.87;;;22.80;99.90;;;;;;6188577;23;20532;-44
2021/07/08 12:51:23;;;;;;;5.33;4.57;;;22.80;99.90;;;;;;6188876;23;20398;-43
2021/07/08 12:53:50;;;;;;;5.43;4.93;;;22.90;99.90;;;;;;6187790;23;20421;-44
2021/07/08 12:56:22;;;;;;;6.53;5.53;;;22.90;99.90;;;;;;6186900;23;20420;-44
2021/07/08 12:58:56;;;;;;;5.53;5.13;;;22.90;99.90;;;;;;6188500;23;20745;-44
2021/07/08 13:01:25;;;;;;;5.30;4.80;;;22.80;99.90;;;;;;6189038;23;20393;-44
2021/07/08 13:03:52;;;;;;;6.43;5.07;;;22.80;99.90;;;;;;6188918;23;20872;-46
2021/07/08 13:06:24;;;;;;;7.90;4.87;;;22.70;99.90;;;;;;6187896;23;20475;-44
2021/07/08 13:09:01;;;;;;;7.07;5.97;;;22.70;99.90;;;;;;6191018;23;20399;-41
2021/07/08 13:11:30;;;;;;;6.90;5.00;;;22.70;99.90;;;;;;6190490;23;20389;-43
2021/07/08 13:14:15;;;;;;;7.23;4.33;;;22.60;99.90;;;;;;6189751;23;20448;-41
2021/07/08 13:16:42;;;;;;;6.77;4.80;;;22.50;99.90;;;;;;6190173;23;20461;-44
2021/07/08 13:19:15;;;;;;;5.83;4.80;;;22.50;99.90;;;;;;6190690;23;20440;-43
2021/07/08 13:21:42;;;;;;;6.00;5.17;;;22.40;99.90;;;;;;6190151;23;20370;-41
2021/07/08 13:24:21;;;;;;;6.83;5.07;;;22.40;99.90;;;;;;6189798;23;20412;-46
2021/07/08 13:26:50;;;;;;;7.83;4.70;;;22.30;99.90;;;;;;6190357;23;20417;-48
2021/07/08 13:29:23;;;;;;;10.70;4.70;;;22.30;99.90;;;;;;6190152;23;20816;-43
2021/07/08 13:31:50;;;;;;;6.10;5.13;;;22.20;99.90;;;;;;6190627;23;20890;-51
2021/07/08 13:34:22;;;;;;;5.13;4.63;;;22.20;99.90;;;;;;6190385;23;20809;-52
2021/07/08 13:36:48;;;;;;;5.83;5.10;;;22.20;99.90;;;;;;6190582;23;20496;-51
2021/07/08 13:39:15;;;;;;;10.23;5.10;;;22.10;99.90;;;;;;6190513;23;20440;-50
2021/07/08 13:41:44;;;;;;;5.40;4.87;;;22.10;99.90;;;;;;6190196;23;20421;-46
2021/07/08 13:44:15;;;;;;;7.27;6.30;;;22.10;99.90;;;;;;6190471;23;20400;-48
2021/07/08 13:46:45;;;;;;;6.40;5.70;;;22.10;99.90;;;;;;6190417;23;20389;-43
2021/07/08 13:49:13;;;;;;;7.67;6.77;;;22.10;99.90;;;;;;6191251;23;20436;-47
2021/07/08 13:51:45;;;;;;;5.23;4.73;;;22.10;99.90;;;;;;6192173;23;20389;-48
2021/07/08 13:54:12;;;;;;;6.53;5.93;;;22.10;99.90;;;;;;6192752;23;20416;-46
2021/07/08 13:56:39;;;;;;;7.30;5.50;;;22.10;99.90;;;;;;6192697;23;20733;-44
2021/07/08 13:59:06;;;;;;;13.70;5.70;;;22.10;99.90;;;;;;6192288;23;20440;-44
2021/07/08 14:01:34;;;;;;;9.53;5.17;;;22.00;99.90;;;;;;6192144;23;20490;-47
2021/07/08 14:04:01;;;;;;;5.50;5.00;;;22.00;99.90;;;;;;6192519;23;20405;-48
2021/07/08 14:06:28;;;;;;;4.97;4.50;;;22.00;99.90;;;;;;6192174;23;20400;-45
2021/07/08 14:08:55;;;;;;;6.87;4.70;;;22.00;99.90;;;;;;6192497;23;20400;-42
2021/07/08 14:11:22;;;;;;;5.10;4.60;;;22.00;99.90;;;;;;6192021;23;20934;-47
2021/07/08 14:13:53;;;;;;;6.90;5.00;;;22.00;99.90;;;;;;6191739;23;20413;-43
2021/07/08 14:16:20;;;;;;;5.50;4.73;;;22.00;99.90;;;;;;6192401;23;20403;-44
2021/07/08 14:18:48;;;;;;;5.50;4.97;;;22.00;99.90;;;;;;6192250;23;20476;-47
2021/07/08 14:21:15;;;;;;;6.70;4.97;;;22.00;99.90;;;;;;6191630;23;20401;-47
2021/07/08 14:23:42;;;;;;;6.03;5.43;;;22.00;99.90;;;;;;6192095;23;20475;-45
2021/07/08 14:26:10;;;;;;;5.10;4.60;;;22.00;99.90;;;;;;6192273;23;20405;-46
2021/07/08 14:28:37;;;;;;;4.83;4.10;;;22.00;99.90;;;;;;6191659;23;20421;-47
2021/07/08 14:31:06;;;;;;;7.77;7.07;;;22.10;99.90;;;;;;6191840;23;20416;-42
2021/07/08 14:33:34;;;;;;;8.77;5.83;;;22.10;99.90;;;;;;6193952;23;20409;-42
2021/07/08 14:36:06;;;;;;;5.20;4.70;;;22.10;99.90;;;;;;6199301;23;20414;-44
2021/07/08 14:38:33;;;;;;;5.73;5.13;;;22.10;99.90;;;;;;6200892;23;20464;-47
2021/07/08 14:41:02;;;;;;;6.17;4.93;;;22.00;99.90;;;;;;6204059;23;20404;-46
2021/07/08 14:43:45;;;;;;;6.90;4.33;;;22.10;99.90;;;;;;6200332;23;20416;-45
2021/07/08 14:46:13;;;;;;;7.43;5.17;;;22.00;99.90;;;;;;6198432;23;20389;-50
2021/07/08 14:48:41;;;;;;;7.37;4.83;;;22.10;99.90;;;;;;6200206;23;20464;-45
2021/07/08 14:51:10;;;;;;;4.73;4.33;;;22.00;99.90;;;;;;6200133;23;20432;-44
2021/07/08 14:53:36;;;;;;;5.83;4.23;;;22.00;99.90;;;;;;6197542;23;20389;-43
2021/07/08 14:56:04;;;;;;;6.27;5.10;;;22.00;99.90;;;;;;6201829;23;20404;-41
2021/07/08 14:58:32;;;;;;;5.20;4.70;;;22.00;99.90;;;;;;6200633;23;20444;-46
2021/07/08 15:00:59;;;;;;;6.50;5.83;;;21.90;99.90;;;;;;6200873;23;20448;-47
2021/07/08 15:03:26;;;;;;;5.43;4.90;;;21.90;99.90;;;;;;6204369;23;20408;-41
2021/07/08 15:05:53;;;;;;;6.27;5.67;;;21.90;99.90;;;;;;6197296;23;20393;-47
2021/07/08 15:08:21;;;;;;;7.10;5.90;;;21.90;99.90;;;;;;6191491;23;20417;-46
2021/07/08 15:10:48;;;;;;;5.60;4.60;;;21.90;99.90;;;;;;6192191;23;20702;-44
2021/07/08 15:13:15;;;;;;;5.97;5.33;;;21.90;99.90;;;;;;6192051;23;20409;-47
2021/07/08 15:15:42;;;;;;;6.03;5.07;;;21.90;99.90;;;;;;6188719;23;20431;-42
2021/07/08 15:18:09;;;;;;;7.83;5.20;;;21.90;99.90;;;;;;6188587;23;20416;-42
2021/07/08 15:20:36;;;;;;;6.03;5.47;;;21.90;99.90;;;;;;6188729;23;20487;-44
2021/07/08 15:23:04;;;;;;;6.23;5.70;;;21.80;99.90;;;;;;6188732;23;20475;-47
2021/07/08 15:25:32;;;;;;;11.43;4.60;;;21.80;99.90;;;;;;6188025;23;20421;-43
2021/07/08 15:27:59;;;;;;;6.47;4.80;;;21.80;99.90;;;;;;6191439;23;20436;-44
2021/07/08 15:43:38;;;;;;;6.57;5.33;;;21.70;99.90;;;;;;6129546;23;20443;-46
2021/07/08 15:46:04;;;;;;;9.53;5.97;;;21.60;99.90;;;;;;6214576;23;20374;-46
2021/07/08 15:48:31;;;;;;;6.37;5.60;;;21.60;99.90;;;;;;6214892;23;20391;-48
2021/07/08 15:50:58;;;;;;;6.50;5.90;;;21.70;99.90;;;;;;6214431;23;20416;-45
2021/07/08 15:58:35;;;;;;;5.90;4.30;;;21.70;99.90;;;;;;6141085;23;20463;-42
2021/07/08 16:01:04;;;;;;;6.00;5.43;;;21.70;99.90;;;;;;6187518;23;20763;-45
2021/07/08 16:03:31;;;;;;;4.83;4.43;;;21.70;99.90;;;;;;6189972;23;20448;-43
2021/07/08 16:05:57;;;;;;;6.20;5.60;;;21.70;99.90;;;;;;6187364;23;20414;-45
2021/07/08 16:42:05;;;;;;;6.40;5.67;;;22.30;99.90;;;;;;6174053;23;20460;-41
2021/07/08 16:44:32;;;;;;;8.93;6.07;;;22.30;99.90;;;;;;6188352;23;20397;-45
2021/07/08 16:46:59;;;;;;;7.90;6.53;;;22.40;99.90;;;;;;6188996;23;20401;-42
2021/07/08 16:49:26;;;;;;;8.27;5.30;;;22.40;99.90;;;;;;6188123;23;20421;-42
2021/07/08 17:38:33;;;;;;;4.30;3.70;;;22.70;99.90;;;;;;6170513;23;20957;-41
2021/07/08 17:41:00;;;;;;;3.87;3.27;;;22.60;99.90;;;;;;6188347;23;20436;-47
2021/07/08 17:43:26;;;;;;;45.13;30.27;;;22.60;99.90;;;;;;6188938;23;20412;-45
2021/07/08 17:45:53;;;;;;;10.10;8.10;;;22.50;99.90;;;;;;6188479;23;20409;-42
2021/07/08 17:48:20;;;;;;;11.70;8.43;;;22.40;99.90;;;;;;6186673;23;20420;-42
2021/07/08 17:50:47;;;;;;;6.73;4.67;;;22.40;99.90;;;;;;6186322;23;20412;-47
2021/07/08 17:53:14;;;;;;;4.40;3.70;;;22.30;99.90;;;;;;6186122;23;20447;-50
2021/07/08 17:55:42;;;;;;;5.83;3.90;;;22.20;99.90;;;;;;6185509;23;20500;-43
2021/07/08 17:58:09;;;;;;;6.03;4.60;;;22.10;99.90;;;;;;6185912;23;20426;-45
2021/07/08 18:00:36;;;;;;;4.40;4.00;;;22.00;99.90;;;;;;6185821;23;20437;-44
2021/07/08 18:03:03;;;;;;;5.63;4.17;;;22.00;99.90;;;;;;6186646;23;20483;-41
2021/07/08 18:05:29;;;;;;;4.73;3.60;;;21.90;99.90;;;;;;6186474;23;20408;-41
2021/07/08 18:07:56;;;;;;;5.87;4.00;;;21.90;99.90;;;;;;6186140;23;20900;-45
2021/07/08 22:54:08;;;;;;;6.17;5.63;;;20.20;99.90;;;;;;6144466;23;20489;-44
2021/07/08 22:56:35;;;;;;;6.23;5.63;;;20.20;99.90;;;;;;6193262;23;20440;-46
2021/07/08 22:59:03;;;;;;;7.57;5.60;;;20.20;99.90;;;;;;6193822;23;20439;-42
2021/07/08 23:01:30;;;;;;;6.23;5.63;;;20.10;99.90;;;;;;6193343;23;20401;-41
2021/07/08 23:03:57;;;;;;;7.23;6.27;;;20.10;99.90;;;;;;6193234;23;20413;-40
2021/07/08 23:06:24;;;;;;;9.73;6.30;;;20.10;99.90;;;;;;6193716;23;20405;-42
2021/07/08 23:08:50;;;;;;;10.67;5.10;;;20.10;99.90;;;;;;6192621;23;20401;-44
2021/07/08 23:11:18;;;;;;;13.57;6.20;;;20.10;99.90;;;;;;6193052;23;20405;-41
2021/07/08 23:13:45;;;;;;;5.87;4.60;;;20.10;99.90;;;;;;6193818;23;20417;-42
2021/07/08 23:16:14;;;;;;;7.07;5.63;;;20.00;99.90;;;;;;6192729;23;20401;-43
2021/07/08 23:18:43;;;;;;;6.40;5.23;;;20.00;99.90;;;;;;6192320;23;20412;-42
2021/07/08 23:21:10;;;;;;;6.40;5.80;;;20.00;99.90;;;;;;6191732;23;20779;-47
2021/07/08 23:23:37;;;;;;;9.00;6.53;;;20.00;99.90;;;;;;6192482;23;20905;-48
2021/07/08 23:26:04;;;;;;;7.87;5.30;;;20.00;99.90;;;;;;6192508;23;20401;-46
2021/07/08 23:28:32;;;;;;;6.73;6.03;;;20.00;99.90;;;;;;6192498;23;20404;-47
2021/07/08 23:31:01;;;;;;;8.33;5.90;;;20.00;99.90;;;;;;6192653;23;20440;-42
2021/07/08 23:33:27;;;;;;;6.33;5.73;;;19.90;99.90;;;;;;6192416;23;20435;-41
2021/07/08 23:35:54;;;;;;;7.13;5.50;;;19.90;99.90;;;;;;6192697;23;20412;-41
2021/07/08 23:38:20;;;;;;;6.53;5.93;;;19.90;99.90;;;;;;6192365;23;20860;-41
2021/07/08 23:40:47;;;;;;;6.67;5.93;;;19.90;99.90;;;;;;6192933;23;20453;-42
